sensor_id;sensor_type;location;lat;lon;timestamp;P1;durP1;ratioP1;P2;durP2;ratioP2
63320;SDS011;49449;48.800;9.534;2023-12-07T00:01:56;9.30;;;6.95;;
63320;SDS011;49449;48.800;9.534;2023-12-07T00:04:24;8.98;;;6.85;;
63320;SDS011;49449;48.800;9.534;2023-12-07T00:06:51;10.60;;;7.25;;
63320;SDS011;49449;48.800;9.534;2023-12-07T00:09:19;9.27;;;8.07;;
63320;SDS011;49449;48.800;9.534;2023-12-07T00:11:48;9.13;;;6.88;;
63320;SDS011;49449;48.800;9.534;2023-12-07T00:14:16;9.10;;;6.72;;
63320;SDS011;49449;48.800;9.534;2023-12-07T00:16:44;9.30;;;7.45;;
63320;SDS011;49449;48.800;9.534;2023-12-07T00:19:12;9.57;;;7.47;;
63320;SDS011;49449;48.800;9.534;2023-12-07T00:21:40;11.65;;;8.15;;
63320;SDS011;49449;48.800;9.534;2023-12-07T00:24:07;10.45;;;8.13;;
63320;SDS011;49449;48.800;9.534;2023-12-07T00:26:35;10.82;;;8.10;;
63320;SDS011;49449;48.800;9.534;2023-12-07T00:29:05;11.25;;;8.13;;
63320;SDS011;49449;48.800;9.534;2023-12-07T00:31:33;11.30;;;7.30;;
63320;SDS011;49449;48.800;9.534;2023-12-07T00:34:01;11.60;;;7.60;;
63320;SDS011;49449;48.800;9.534;2023-12-07T00:36:29;11.95;;;9.07;;
63320;SDS011;49449;48.800;9.534;2023-12-07T00:38:57;12.60;;;8.35;;
63320;SDS011;49449;48.800;9.534;2023-12-07T00:41:24;11.90;;;8.88;;
63320;SDS011;49449;48.800;9.534;2023-12-07T00:43:52;10.15;;;7.38;;
63320;SDS011;49449;48.800;9.534;2023-12-07T00:46:22;10.77;;;7.68;;
63320;SDS011;49449;48.800;9.534;2023-12-07T00:48:50;10.90;;;7.40;;
63320;SDS011;49449;48.800;9.534;2023-12-07T00:51:18;9.48;;;7.68;;
63320;SDS011;49449;48.800;9.534;2023-12-07T00:53:45;10.38;;;7.50;;
63320;SDS011;49449;48.800;9.534;2023-12-07T00:56:13;9.82;;;7.35;;
63320;SDS011;49449;48.800;9.534;2023-12-07T00:58:41;10.18;;;7.72;;
63320;SDS011;49449;48.800;9.534;2023-12-07T01:01:09;8.75;;;6.88;;
63320;SDS011;49449;48.800;9.534;2023-12-07T01:03:40;9.20;;;7.95;;
63320;SDS011;49449;48.800;9.534;2023-12-07T01:06:08;9.48;;;7.85;;
63320;SDS011;49449;48.800;9.534;2023-12-07T01:08:37;8.82;;;6.68;;
63320;SDS011;49449;48.800;9.534;2023-12-07T01:11:05;7.93;;;6.90;;
63320;SDS011;49449;48.800;9.534;2023-12-07T01:13:33;9.10;;;7.25;;
63320;SDS011;49449;48.800;9.534;2023-12-07T01:16:02;8.77;;;6.78;;
63320;SDS011;49449;48.800;9.534;2023-12-07T01:18:30;12.13;;;9.05;;
63320;SDS011;49449;48.800;9.534;2023-12-07T01:21:00;8.90;;;7.72;;
63320;SDS011;49449;48.800;9.534;2023-12-07T01:23:28;8.73;;;6.78;;
63320;SDS011;49449;48.800;9.534;2023-12-07T01:25:56;8.32;;;6.65;;
63320;SDS011;49449;48.800;9.534;2023-12-07T01:28:23;9.15;;;6.43;;
63320;SDS011;49449;48.800;9.534;2023-12-07T01:30:51;9.52;;;6.10;;
63320;SDS011;49449;48.800;9.534;2023-12-07T01:33:19;8.35;;;6.10;;
63320;SDS011;49449;48.800;9.534;2023-12-07T01:35:48;8.82;;;6.70;;
63320;SDS011;49449;48.800;9.534;2023-12-07T01:38:17;9.27;;;6.53;;
63320;SDS011;49449;48.800;9.534;2023-12-07T01:40:45;9.65;;;6.70;;
63320;SDS011;49449;48.800;9.534;2023-12-07T01:43:13;9.77;;;7.53;;
63320;SDS011;49449;48.800;9.534;2023-12-07T01:45:41;8.82;;;7.32;;
63320;SDS011;49449;48.800;9.534;2023-12-07T01:48:09;8.75;;;6.82;;
63320;SDS011;49449;48.800;9.534;2023-12-07T01:50:37;7.88;;;6.40;;
63320;SDS011;49449;48.800;9.534;2023-12-07T01:53:05;9.90;;;6.80;;
63320;SDS011;49449;48.800;9.534;2023-12-07T01:55:35;9.32;;;6.45;;
63320;SDS011;49449;48.800;9.534;2023-12-07T01:58:04;9.68;;;6.45;;
63320;SDS011;49449;48.800;9.534;2023-12-07T02:00:32;8.75;;;6.82;;
63320;SDS011;49449;48.800;9.534;2023-12-07T02:03:01;10.70;;;8.05;;
63320;SDS011;49449;48.800;9.534;2023-12-07T02:05:31;9.65;;;7.20;;
63320;SDS011;49449;48.800;9.534;2023-12-07T02:08:00;9.27;;;7.07;;
63320;SDS011;49449;48.800;9.534;2023-12-07T02:10:28;10.55;;;7.93;;
63320;SDS011;49449;48.800;9.534;2023-12-07T02:12:57;9.43;;;7.38;;
63320;SDS011;49449;48.800;9.534;2023-12-07T02:15:25;8.25;;;6.97;;
63320;SDS011;49449;48.800;9.534;2023-12-07T02:17:55;8.98;;;7.60;;
63320;SDS011;49449;48.800;9.534;2023-12-07T02:20:30;12.13;;;8.60;;
63320;SDS011;49449;48.800;9.534;2023-12-07T02:23:06;11.10;;;7.78;;
63320;SDS011;49449;48.800;9.534;2023-12-07T02:25:35;10.20;;;8.45;;
63320;SDS011;49449;48.800;9.534;2023-12-07T02:28:06;9.77;;;7.15;;
63320;SDS011;49449;48.800;9.534;2023-12-07T02:30:33;10.20;;;7.15;;
63320;SDS011;49449;48.800;9.534;2023-12-07T02:33:01;9.93;;;7.65;;
63320;SDS011;49449;48.800;9.534;2023-12-07T02:35:31;11.32;;;9.15;;
63320;SDS011;49449;48.800;9.534;2023-12-07T02:38:00;10.40;;;8.60;;
63320;SDS011;49449;48.800;9.534;2023-12-07T02:40:29;9.93;;;7.18;;
63320;SDS011;49449;48.800;9.534;2023-12-07T02:42:58;10.90;;;8.13;;
63320;SDS011;49449;48.800;9.534;2023-12-07T02:45:29;9.73;;;8.20;;
63320;SDS011;49449;48.800;9.534;2023-12-07T02:47:57;10.48;;;8.90;;
63320;SDS011;49449;48.800;9.534;2023-12-07T02:50:25;10.50;;;9.00;;
63320;SDS011;49449;48.800;9.534;2023-12-07T02:52:53;10.98;;;7.93;;
63320;SDS011;49449;48.800;9.534;2023-12-07T02:55:23;8.90;;;7.20;;
63320;SDS011;49449;48.800;9.534;2023-12-07T02:57:51;10.10;;;7.22;;
63320;SDS011;49449;48.800;9.534;2023-12-07T03:00:18;9.32;;;7.40;;
63320;SDS011;49449;48.800;9.534;2023-12-07T03:02:49;9.85;;;7.45;;
63320;SDS011;49449;48.800;9.534;2023-12-07T03:05:18;9.43;;;6.88;;
63320;SDS011;49449;48.800;9.534;2023-12-07T03:07:46;9.55;;;7.22;;
63320;SDS011;49449;48.800;9.534;2023-12-07T03:10:14;9.23;;;7.40;;
63320;SDS011;49449;48.800;9.534;2023-12-07T03:12:44;9.02;;;6.65;;
63320;SDS011;49449;48.800;9.534;2023-12-07T03:15:12;9.82;;;6.43;;
63320;SDS011;49449;48.800;9.534;2023-12-07T03:17:40;8.55;;;6.15;;
63320;SDS011;49449;48.800;9.534;2023-12-07T03:20:11;8.18;;;7.28;;
63320;SDS011;49449;48.800;9.534;2023-12-07T03:22:40;8.32;;;5.72;;
63320;SDS011;49449;48.800;9.534;2023-12-07T03:25:08;8.18;;;6.25;;
63320;SDS011;49449;48.800;9.534;2023-12-07T03:27:35;7.72;;;6.03;;
63320;SDS011;49449;48.800;9.534;2023-12-07T03:30:04;7.57;;;5.95;;
63320;SDS011;49449;48.800;9.534;2023-12-07T03:32:33;9.38;;;6.30;;
63320;SDS011;49449;48.800;9.534;2023-12-07T03:35:01;7.45;;;5.80;;
63320;SDS011;49449;48.800;9.534;2023-12-07T03:37:30;7.85;;;6.13;;
63320;SDS011;49449;48.800;9.534;2023-12-07T03:39:58;7.10;;;6.15;;
63320;SDS011;49449;48.800;9.534;2023-12-07T03:42:25;8.00;;;6.00;;
63320;SDS011;49449;48.800;9.534;2023-12-07T03:44:53;7.95;;;5.85;;
63320;SDS011;49449;48.800;9.534;2023-12-07T03:47:21;8.80;;;6.10;;
63320;SDS011;49449;48.800;9.534;2023-12-07T03:49:49;7.63;;;5.90;;
63320;SDS011;49449;48.800;9.534;2023-12-07T03:52:17;7.35;;;6.07;;
63320;SDS011;49449;48.800;9.534;2023-12-07T03:54:46;8.60;;;5.93;;
63320;SDS011;49449;48.800;9.534;2023-12-07T03:57:14;7.47;;;5.80;;
63320;SDS011;49449;48.800;9.534;2023-12-07T03:59:41;7.85;;;5.72;;
63320;SDS011;49449;48.800;9.534;2023-12-07T04:02:09;7.18;;;5.47;;
63320;SDS011;49449;48.800;9.534;2023-12-07T04:04:37;7.20;;;5.95;;
63320;SDS011;49449;48.800;9.534;2023-12-07T04:07:05;7.20;;;5.88;;
63320;SDS011;49449;48.800;9.534;2023-12-07T04:09:33;7.63;;;6.30;;
63320;SDS011;49449;48.800;9.534;2023-12-07T04:12:03;7.40;;;6.00;;
63320;SDS011;49449;48.800;9.534;2023-12-07T04:14:31;9.23;;;6.40;;
63320;SDS011;49449;48.800;9.534;2023-12-07T04:16:58;7.32;;;6.03;;
63320;SDS011;49449;48.800;9.534;2023-12-07T04:19:26;7.07;;;5.68;;
63320;SDS011;49449;48.800;9.534;2023-12-07T04:21:54;7.22;;;5.90;;
63320;SDS011;49449;48.800;9.534;2023-12-07T04:24:22;8.45;;;6.35;;
63320;SDS011;49449;48.800;9.534;2023-12-07T04:26:50;10.15;;;6.82;;
63320;SDS011;49449;48.800;9.534;2023-12-07T04:29:19;7.75;;;6.13;;
63320;SDS011;49449;48.800;9.534;2023-12-07T04:31:47;7.35;;;6.20;;
63320;SDS011;49449;48.800;9.534;2023-12-07T04:34:14;6.47;;;5.55;;
63320;SDS011;49449;48.800;9.534;2023-12-07T04:36:42;7.93;;;5.90;;
63320;SDS011;49449;48.800;9.534;2023-12-07T04:39:10;8.32;;;6.15;;
63320;SDS011;49449;48.800;9.534;2023-12-07T04:41:38;7.85;;;5.82;;
63320;SDS011;49449;48.800;9.534;2023-12-07T04:44:06;6.95;;;5.43;;
63320;SDS011;49449;48.800;9.534;2023-12-07T04:46:37;7.45;;;5.93;;
63320;SDS011;49449;48.800;9.534;2023-12-07T04:49:05;8.40;;;7.55;;
63320;SDS011;49449;48.800;9.534;2023-12-07T04:51:33;7.32;;;5.38;;
63320;SDS011;49449;48.800;9.534;2023-12-07T04:54:01;7.18;;;5.50;;
63320;SDS011;49449;48.800;9.534;2023-12-07T04:56:30;8.27;;;6.50;;
63320;SDS011;49449;48.800;9.534;2023-12-07T04:58:58;8.48;;;5.85;;
63320;SDS011;49449;48.800;9.534;2023-12-07T05:01:26;7.47;;;5.75;;
63320;SDS011;49449;48.800;9.534;2023-12-07T05:03:55;8.98;;;6.28;;
63320;SDS011;49449;48.800;9.534;2023-12-07T05:06:23;7.82;;;5.78;;
63320;SDS011;49449;48.800;9.534;2023-12-07T05:08:51;8.10;;;6.30;;
63320;SDS011;49449;48.800;9.534;2023-12-07T05:11:19;8.30;;;6.13;;
63320;SDS011;49449;48.800;9.534;2023-12-07T05:13:46;9.30;;;6.63;;
63320;SDS011;49449;48.800;9.534;2023-12-07T05:16:15;8.43;;;7.53;;
63320;SDS011;49449;48.800;9.534;2023-12-07T05:18:42;8.77;;;7.68;;
63320;SDS011;49449;48.800;9.534;2023-12-07T05:21:12;8.15;;;6.20;;
63320;SDS011;49449;48.800;9.534;2023-12-07T05:23:40;8.48;;;6.22;;
63320;SDS011;49449;48.800;9.534;2023-12-07T05:26:08;7.70;;;6.07;;
63320;SDS011;49449;48.800;9.534;2023-12-07T05:28:37;9.60;;;6.53;;
63320;SDS011;49449;48.800;9.534;2023-12-07T05:31:05;8.55;;;6.88;;
63320;SDS011;49449;48.800;9.534;2023-12-07T05:33:33;9.25;;;6.20;;
63320;SDS011;49449;48.800;9.534;2023-12-07T05:36:01;8.40;;;6.57;;
63320;SDS011;49449;48.800;9.534;2023-12-07T05:38:31;8.50;;;6.82;;
63320;SDS011;49449;48.800;9.534;2023-12-07T05:40:58;8.23;;;6.35;;
63320;SDS011;49449;48.800;9.534;2023-12-07T05:43:26;8.10;;;6.32;;
63320;SDS011;49449;48.800;9.534;2023-12-07T05:45:54;7.63;;;6.22;;
63320;SDS011;49449;48.800;9.534;2023-12-07T05:48:22;8.35;;;6.60;;
63320;SDS011;49449;48.800;9.534;2023-12-07T05:50:50;8.30;;;5.97;;
63320;SDS011;49449;48.800;9.534;2023-12-07T05:53:17;10.57;;;7.88;;
63320;SDS011;49449;48.800;9.534;2023-12-07T05:55:47;10.30;;;8.68;;
63320;SDS011;49449;48.800;9.534;2023-12-07T05:58:14;9.75;;;7.57;;
63320;SDS011;49449;48.800;9.534;2023-12-07T06:00:44;8.55;;;6.97;;
63320;SDS011;49449;48.800;9.534;2023-12-07T06:03:13;12.20;;;8.05;;
63320;SDS011;49449;48.800;9.534;2023-12-07T06:05:41;11.63;;;8.32;;
63320;SDS011;49449;48.800;9.534;2023-12-07T06:08:11;10.35;;;7.72;;
63320;SDS011;49449;48.800;9.534;2023-12-07T06:10:39;10.50;;;8.10;;
63320;SDS011;49449;48.800;9.534;2023-12-07T06:13:08;12.73;;;8.80;;
63320;SDS011;49449;48.800;9.534;2023-12-07T06:15:36;12.20;;;8.55;;
63320;SDS011;49449;48.800;9.534;2023-12-07T06:18:04;13.77;;;8.25;;
63320;SDS011;49449;48.800;9.534;2023-12-07T06:20:32;12.18;;;9.00;;
63320;SDS011;49449;48.800;9.534;2023-12-07T06:23:01;13.05;;;7.65;;
63320;SDS011;49449;48.800;9.534;2023-12-07T06:25:29;12.77;;;8.40;;
63320;SDS011;49449;48.800;9.534;2023-12-07T06:27:57;12.25;;;8.05;;
63320;SDS011;49449;48.800;9.534;2023-12-07T06:30:27;12.02;;;7.80;;
63320;SDS011;49449;48.800;9.534;2023-12-07T06:32:55;10.43;;;7.63;;
63320;SDS011;49449;48.800;9.534;2023-12-07T06:35:22;12.60;;;7.82;;
63320;SDS011;49449;48.800;9.534;2023-12-07T06:37:50;13.20;;;9.07;;
63320;SDS011;49449;48.800;9.534;2023-12-07T06:40:18;12.25;;;8.52;;
63320;SDS011;49449;48.800;9.534;2023-12-07T06:42:46;11.43;;;8.20;;
63320;SDS011;49449;48.800;9.534;2023-12-07T06:45:15;12.55;;;8.95;;
63320;SDS011;49449;48.800;9.534;2023-12-07T06:47:44;15.35;;;7.82;;
63320;SDS011;49449;48.800;9.534;2023-12-07T06:50:12;15.48;;;8.05;;
63320;SDS011;49449;48.800;9.534;2023-12-07T06:52:40;18.88;;;7.82;;
63320;SDS011;49449;48.800;9.534;2023-12-07T06:55:08;11.68;;;7.93;;
63320;SDS011;49449;48.800;9.534;2023-12-07T06:57:36;9.07;;;7.00;;
63320;SDS011;49449;48.800;9.534;2023-12-07T07:00:05;10.85;;;6.72;;
63320;SDS011;49449;48.800;9.534;2023-12-07T07:02:37;9.95;;;6.57;;
63320;SDS011;49449;48.800;9.534;2023-12-07T07:05:06;9.52;;;6.90;;
63320;SDS011;49449;48.800;9.534;2023-12-07T07:07:37;11.35;;;6.47;;
63320;SDS011;49449;48.800;9.534;2023-12-07T07:10:06;26.83;;;7.35;;
63320;SDS011;49449;48.800;9.534;2023-12-07T07:12:36;10.23;;;6.82;;
63320;SDS011;49449;48.800;9.534;2023-12-07T07:15:04;11.40;;;7.45;;
63320;SDS011;49449;48.800;9.534;2023-12-07T07:17:34;9.13;;;6.15;;
63320;SDS011;49449;48.800;9.534;2023-12-07T07:20:02;9.65;;;6.88;;
63320;SDS011;49449;48.800;9.534;2023-12-07T07:22:32;10.20;;;7.53;;
63320;SDS011;49449;48.800;9.534;2023-12-07T07:25:00;11.50;;;7.18;;
63320;SDS011;49449;48.800;9.534;2023-12-07T07:27:29;10.65;;;6.85;;
63320;SDS011;49449;48.800;9.534;2023-12-07T07:29:56;10.48;;;7.75;;
63320;SDS011;49449;48.800;9.534;2023-12-07T07:32:24;11.52;;;6.97;;
63320;SDS011;49449;48.800;9.534;2023-12-07T07:34:54;7.32;;;5.65;;
63320;SDS011;49449;48.800;9.534;2023-12-07T07:37:22;9.75;;;6.80;;
63320;SDS011;49449;48.800;9.534;2023-12-07T07:39:51;10.27;;;6.22;;
63320;SDS011;49449;48.800;9.534;2023-12-07T07:42:19;7.53;;;5.72;;
63320;SDS011;49449;48.800;9.534;2023-12-07T07:44:47;6.53;;;5.28;;
63320;SDS011;49449;48.800;9.534;2023-12-07T07:47:15;13.95;;;6.20;;
63320;SDS011;49449;48.800;9.534;2023-12-07T07:49:42;8.25;;;5.95;;
63320;SDS011;49449;48.800;9.534;2023-12-07T07:52:12;9.90;;;5.78;;
63320;SDS011;49449;48.800;9.534;2023-12-07T07:54:40;7.78;;;6.28;;
63320;SDS011;49449;48.800;9.534;2023-12-07T07:57:09;7.68;;;5.75;;
63320;SDS011;49449;48.800;9.534;2023-12-07T07:59:37;8.80;;;6.10;;
63320;SDS011;49449;48.800;9.534;2023-12-07T08:02:05;8.20;;;6.47;;
63320;SDS011;49449;48.800;9.534;2023-12-07T08:04:32;7.97;;;5.85;;
63320;SDS011;49449;48.800;9.534;2023-12-07T08:07:00;12.65;;;6.60;;
63320;SDS011;49449;48.800;9.534;2023-12-07T08:09:29;10.40;;;6.82;;
63320;SDS011;49449;48.800;9.534;2023-12-07T08:11:56;7.97;;;6.47;;
63320;SDS011;49449;48.800;9.534;2023-12-07T08:14:25;9.27;;;6.93;;
63320;SDS011;49449;48.800;9.534;2023-12-07T08:16:54;8.80;;;7.30;;
63320;SDS011;49449;48.800;9.534;2023-12-07T08:19:22;9.07;;;6.80;;
63320;SDS011;49449;48.800;9.534;2023-12-07T08:21:50;8.50;;;5.90;;
63320;SDS011;49449;48.800;9.534;2023-12-07T08:24:18;8.57;;;6.78;;
63320;SDS011;49449;48.800;9.534;2023-12-07T08:26:45;11.07;;;7.38;;
63320;SDS011;49449;48.800;9.534;2023-12-07T08:29:13;14.75;;;8.07;;
63320;SDS011;49449;48.800;9.534;2023-12-07T08:31:42;17.83;;;7.32;;
63320;SDS011;49449;48.800;9.534;2023-12-07T08:34:10;9.75;;;6.40;;
63320;SDS011;49449;48.800;9.534;2023-12-07T08:36:38;11.73;;;6.93;;
63320;SDS011;49449;48.800;9.534;2023-12-07T08:39:06;13.20;;;8.10;;
63320;SDS011;49449;48.800;9.534;2023-12-07T08:41:36;10.93;;;7.80;;
63320;SDS011;49449;48.800;9.534;2023-12-07T08:44:04;13.82;;;7.47;;
63320;SDS011;49449;48.800;9.534;2023-12-07T08:46:32;9.57;;;7.82;;
63320;SDS011;49449;48.800;9.534;2023-12-07T08:49:02;9.00;;;7.80;;
63320;SDS011;49449;48.800;9.534;2023-12-07T08:51:30;15.52;;;8.60;;
63320;SDS011;49449;48.800;9.534;2023-12-07T08:53:57;10.55;;;8.15;;
63320;SDS011;49449;48.800;9.534;2023-12-07T08:56:25;10.98;;;9.40;;
63320;SDS011;49449;48.800;9.534;2023-12-07T08:58:53;11.13;;;8.15;;
63320;SDS011;49449;48.800;9.534;2023-12-07T09:01:21;10.75;;;8.00;;
63320;SDS011;49449;48.800;9.534;2023-12-07T09:03:50;10.27;;;8.05;;
63320;SDS011;49449;48.800;9.534;2023-12-07T09:06:19;8.52;;;6.70;;
63320;SDS011;49449;48.800;9.534;2023-12-07T09:08:47;6.60;;;5.20;;
63320;SDS011;49449;48.800;9.534;2023-12-07T09:11:15;7.85;;;6.80;;
63320;SDS011;49449;48.800;9.534;2023-12-07T09:13:43;7.43;;;6.10;;
63320;SDS011;49449;48.800;9.534;2023-12-07T09:16:11;8.43;;;6.15;;
63320;SDS011;49449;48.800;9.534;2023-12-07T09:18:38;8.70;;;6.45;;
63320;SDS011;49449;48.800;9.534;2023-12-07T09:21:06;10.10;;;7.32;;
63320;SDS011;49449;48.800;9.534;2023-12-07T09:23:36;10.75;;;7.18;;
63320;SDS011;49449;48.800;9.534;2023-12-07T09:26:03;11.93;;;7.63;;
63320;SDS011;49449;48.800;9.534;2023-12-07T09:28:31;8.15;;;6.97;;
63320;SDS011;49449;48.800;9.534;2023-12-07T09:31:00;8.98;;;6.43;;
63320;SDS011;49449;48.800;9.534;2023-12-07T09:33:28;9.75;;;6.97;;
63320;SDS011;49449;48.800;9.534;2023-12-07T09:35:56;10.05;;;6.63;;
63320;SDS011;49449;48.800;9.534;2023-12-07T09:38:23;10.00;;;7.55;;
63320;SDS011;49449;48.800;9.534;2023-12-07T09:40:54;9.13;;;6.95;;
63320;SDS011;49449;48.800;9.534;2023-12-07T09:43:22;9.13;;;7.03;;
63320;SDS011;49449;48.800;9.534;2023-12-07T09:45:49;7.90;;;6.55;;
63320;SDS011;49449;48.800;9.534;2023-12-07T09:48:21;7.45;;;6.40;;
63320;SDS011;49449;48.800;9.534;2023-12-07T09:50:48;7.55;;;5.90;;
63320;SDS011;49449;48.800;9.534;2023-12-07T09:53:16;7.13;;;6.43;;
63320;SDS011;49449;48.800;9.534;2023-12-07T09:55:44;5.72;;;5.10;;
63320;SDS011;49449;48.800;9.534;2023-12-07T09:58:15;7.72;;;5.22;;
63320;SDS011;49449;48.800;9.534;2023-12-07T10:00:46;9.10;;;6.53;;
63320;SDS011;49449;48.800;9.534;2023-12-07T10:03:20;7.90;;;5.97;;
63320;SDS011;49449;48.800;9.534;2023-12-07T10:05:55;8.63;;;6.70;;
63320;SDS011;49449;48.800;9.534;2023-12-07T10:08:28;8.25;;;6.88;;
63320;SDS011;49449;48.800;9.534;2023-12-07T10:11:03;9.15;;;7.28;;
63320;SDS011;49449;48.800;9.534;2023-12-07T10:13:34;9.00;;;7.00;;
63320;SDS011;49449;48.800;9.534;2023-12-07T10:16:07;8.70;;;6.97;;
63320;SDS011;49449;48.800;9.534;2023-12-07T10:18:36;8.57;;;7.00;;
63320;SDS011;49449;48.800;9.534;2023-12-07T10:21:07;9.20;;;6.70;;
63320;SDS011;49449;48.800;9.534;2023-12-07T10:23:36;9.88;;;7.35;;
63320;SDS011;49449;48.800;9.534;2023-12-07T10:26:05;6.97;;;6.13;;
63320;SDS011;49449;48.800;9.534;2023-12-07T10:28:35;8.57;;;6.57;;
63320;SDS011;49449;48.800;9.534;2023-12-07T10:31:03;8.95;;;7.90;;
63320;SDS011;49449;48.800;9.534;2023-12-07T10:33:35;8.20;;;6.63;;
63320;SDS011;49449;48.800;9.534;2023-12-07T10:36:03;8.85;;;7.25;;
63320;SDS011;49449;48.800;9.534;2023-12-07T10:38:32;11.57;;;8.52;;
63320;SDS011;49449;48.800;9.534;2023-12-07T10:41:03;11.23;;;8.93;;
63320;SDS011;49449;48.800;9.534;2023-12-07T10:43:36;12.23;;;9.38;;
63320;SDS011;49449;48.800;9.534;2023-12-07T10:46:05;12.38;;;9.88;;
63320;SDS011;49449;48.800;9.534;2023-12-07T10:48:34;12.80;;;10.13;;
63320;SDS011;49449;48.800;9.534;2023-12-07T10:51:05;11.75;;;9.73;;
63320;SDS011;49449;48.800;9.534;2023-12-07T10:53:37;12.10;;;9.90;;
63320;SDS011;49449;48.800;9.534;2023-12-07T10:56:10;14.02;;;10.70;;
63320;SDS011;49449;48.800;9.534;2023-12-07T10:58:40;12.15;;;9.55;;
63320;SDS011;49449;48.800;9.534;2023-12-07T11:01:09;11.85;;;10.25;;
63320;SDS011;49449;48.800;9.534;2023-12-07T11:03:40;12.52;;;9.90;;
63320;SDS011;49449;48.800;9.534;2023-12-07T11:06:10;12.27;;;9.57;;
63320;SDS011;49449;48.800;9.534;2023-12-07T11:08:39;12.52;;;9.80;;
63320;SDS011;49449;48.800;9.534;2023-12-07T11:11:12;13.00;;;10.00;;
63320;SDS011;49449;48.800;9.534;2023-12-07T11:13:49;11.25;;;9.15;;
63320;SDS011;49449;48.800;9.534;2023-12-07T11:16:28;12.90;;;10.07;;
63320;SDS011;49449;48.800;9.534;2023-12-07T11:18:57;12.25;;;9.50;;
63320;SDS011;49449;48.800;9.534;2023-12-07T11:21:26;13.50;;;10.30;;
63320;SDS011;49449;48.800;9.534;2023-12-07T11:23:54;11.10;;;9.88;;
63320;SDS011;49449;48.800;9.534;2023-12-07T11:26:22;12.77;;;9.63;;
63320;SDS011;49449;48.800;9.534;2023-12-07T11:28:52;10.18;;;8.32;;
63320;SDS011;49449;48.800;9.534;2023-12-07T11:33:49;13.95;;;9.95;;
63320;SDS011;49449;48.800;9.534;2023-12-07T11:36:17;10.32;;;8.60;;
63320;SDS011;49449;48.800;9.534;2023-12-07T11:41:49;9.38;;;7.63;;
63320;SDS011;49449;48.800;9.534;2023-12-07T11:44:18;8.85;;;7.63;;
63320;SDS011;49449;48.800;9.534;2023-12-07T11:46:46;9.88;;;7.30;;
63320;SDS011;49449;48.800;9.534;2023-12-07T11:49:14;8.95;;;7.03;;
63320;SDS011;49449;48.800;9.534;2023-12-07T11:51:43;7.10;;;5.55;;
63320;SDS011;49449;48.800;9.534;2023-12-07T11:54:11;7.20;;;6.50;;
63320;SDS011;49449;48.800;9.534;2023-12-07T11:56:39;8.25;;;5.85;;
63320;SDS011;49449;48.800;9.534;2023-12-07T11:59:07;8.20;;;5.65;;
63320;SDS011;49449;48.800;9.534;2023-12-07T12:01:37;7.82;;;5.85;;
63320;SDS011;49449;48.800;9.534;2023-12-07T12:04:05;8.70;;;6.53;;
63320;SDS011;49449;48.800;9.534;2023-12-07T12:06:35;6.70;;;5.13;;
63320;SDS011;49449;48.800;9.534;2023-12-07T12:09:03;5.97;;;5.20;;
63320;SDS011;49449;48.800;9.534;2023-12-07T12:11:30;7.82;;;6.65;;
63320;SDS011;49449;48.800;9.534;2023-12-07T12:13:58;7.53;;;6.70;;
63320;SDS011;49449;48.800;9.534;2023-12-07T12:16:26;7.13;;;5.10;;
63320;SDS011;49449;48.800;9.534;2023-12-07T12:18:55;5.70;;;5.03;;
63320;SDS011;49449;48.800;9.534;2023-12-07T12:21:24;6.88;;;5.10;;
63320;SDS011;49449;48.800;9.534;2023-12-07T12:23:52;6.93;;;5.25;;
63320;SDS011;49449;48.800;9.534;2023-12-07T12:26:20;6.88;;;5.78;;
63320;SDS011;49449;48.800;9.534;2023-12-07T12:28:48;5.70;;;5.13;;
63320;SDS011;49449;48.800;9.534;2023-12-07T12:31:16;6.55;;;5.60;;
63320;SDS011;49449;48.800;9.534;2023-12-07T12:33:44;5.60;;;4.95;;
63320;SDS011;49449;48.800;9.534;2023-12-07T12:36:13;6.55;;;5.30;;
63320;SDS011;49449;48.800;9.534;2023-12-07T12:38:42;4.75;;;4.22;;
63320;SDS011;49449;48.800;9.534;2023-12-07T12:41:17;4.65;;;3.80;;
63320;SDS011;49449;48.800;9.534;2023-12-07T12:43:46;6.65;;;4.00;;
63320;SDS011;49449;48.800;9.534;2023-12-07T12:46:14;5.15;;;4.05;;
63320;SDS011;49449;48.800;9.534;2023-12-07T12:48:52;5.15;;;4.28;;
63320;SDS011;49449;48.800;9.534;2023-12-07T12:51:24;4.57;;;3.83;;
63320;SDS011;49449;48.800;9.534;2023-12-07T12:53:53;3.30;;;2.95;;
63320;SDS011;49449;48.800;9.534;2023-12-07T12:56:22;3.17;;;2.40;;
63320;SDS011;49449;48.800;9.534;2023-12-07T12:58:50;3.42;;;2.65;;
63320;SDS011;49449;48.800;9.534;2023-12-07T13:01:20;2.40;;;2.08;;
63320;SDS011;49449;48.800;9.534;2023-12-07T13:03:50;3.80;;;2.92;;
63320;SDS011;49449;48.800;9.534;2023-12-07T13:06:18;2.60;;;2.40;;
63320;SDS011;49449;48.800;9.534;2023-12-07T13:08:47;2.13;;;1.92;;
63320;SDS011;49449;48.800;9.534;2023-12-07T13:11:15;2.10;;;1.90;;
63320;SDS011;49449;48.800;9.534;2023-12-07T13:13:44;2.47;;;2.28;;
63320;SDS011;49449;48.800;9.534;2023-12-07T13:16:13;4.28;;;2.42;;
63320;SDS011;49449;48.800;9.534;2023-12-07T13:18:41;2.67;;;2.10;;
63320;SDS011;49449;48.800;9.534;2023-12-07T13:21:09;2.47;;;2.20;;
63320;SDS011;49449;48.800;9.534;2023-12-07T13:23:38;3.03;;;2.83;;
63320;SDS011;49449;48.800;9.534;2023-12-07T13:26:07;3.83;;;2.50;;
63320;SDS011;49449;48.800;9.534;2023-12-07T13:28:35;2.22;;;2.03;;
63320;SDS011;49449;48.800;9.534;2023-12-07T13:31:03;2.90;;;2.60;;
63320;SDS011;49449;48.800;9.534;2023-12-07T13:33:31;2.75;;;1.90;;
63320;SDS011;49449;48.800;9.534;2023-12-07T13:36:02;2.60;;;1.95;;
63320;SDS011;49449;48.800;9.534;2023-12-07T13:38:31;3.92;;;2.47;;
63320;SDS011;49449;48.800;9.534;2023-12-07T13:41:00;2.70;;;2.50;;
63320;SDS011;49449;48.800;9.534;2023-12-07T13:43:30;2.10;;;2.00;;
63320;SDS011;49449;48.800;9.534;2023-12-07T13:45:59;2.33;;;2.10;;
63320;SDS011;49449;48.800;9.534;2023-12-07T13:48:27;2.13;;;1.92;;
63320;SDS011;49449;48.800;9.534;2023-12-07T13:50:56;2.00;;;1.90;;
63320;SDS011;49449;48.800;9.534;2023-12-07T13:53:23;2.38;;;2.10;;
63320;SDS011;49449;48.800;9.534;2023-12-07T13:55:51;2.17;;;2.00;;
63320;SDS011;49449;48.800;9.534;2023-12-07T13:58:19;2.13;;;1.90;;
63320;SDS011;49449;48.800;9.534;2023-12-07T14:00:48;2.55;;;2.10;;
63320;SDS011;49449;48.800;9.534;2023-12-07T14:03:16;3.28;;;2.28;;
63320;SDS011;49449;48.800;9.534;2023-12-07T14:05:44;2.60;;;2.40;;
63320;SDS011;49449;48.800;9.534;2023-12-07T14:08:12;2.60;;;2.15;;
63320;SDS011;49449;48.800;9.534;2023-12-07T14:10:40;4.00;;;2.55;;
63320;SDS011;49449;48.800;9.534;2023-12-07T14:13:08;2.40;;;2.20;;
63320;SDS011;49449;48.800;9.534;2023-12-07T14:15:36;3.15;;;2.47;;
63320;SDS011;49449;48.800;9.534;2023-12-07T14:18:05;2.63;;;2.28;;
63320;SDS011;49449;48.800;9.534;2023-12-07T14:20:33;2.22;;;2.03;;
63320;SDS011;49449;48.800;9.534;2023-12-07T14:23:06;2.75;;;2.53;;
63320;SDS011;49449;48.800;9.534;2023-12-07T14:25:34;3.15;;;2.35;;
63320;SDS011;49449;48.800;9.534;2023-12-07T14:28:02;2.45;;;2.10;;
63320;SDS011;49449;48.800;9.534;2023-12-07T14:30:29;2.65;;;2.30;;
63320;SDS011;49449;48.800;9.534;2023-12-07T14:32:57;5.53;;;2.97;;
63320;SDS011;49449;48.800;9.534;2023-12-07T14:35:28;4.22;;;2.60;;
63320;SDS011;49449;48.800;9.534;2023-12-07T14:37:56;3.90;;;2.08;;
63320;SDS011;49449;48.800;9.534;2023-12-07T14:40:24;3.35;;;2.33;;
63320;SDS011;49449;48.800;9.534;2023-12-07T14:42:52;2.78;;;2.45;;
63320;SDS011;49449;48.800;9.534;2023-12-07T14:45:20;5.32;;;2.60;;
63320;SDS011;49449;48.800;9.534;2023-12-07T14:47:47;2.50;;;2.28;;
63320;SDS011;49449;48.800;9.534;2023-12-07T14:50:16;2.72;;;2.50;;
63320;SDS011;49449;48.800;9.534;2023-12-07T14:52:45;3.53;;;2.55;;
63320;SDS011;49449;48.800;9.534;2023-12-07T14:55:13;2.65;;;2.25;;
63320;SDS011;49449;48.800;9.534;2023-12-07T14:57:41;2.97;;;2.35;;